Time;durP1;ratioP1;P1;durP2;ratioP2;P2;SDS_P1;SDS_P2;PMS_P1;PMS_P2;Temp;Humidity;BMP_temperature;BMP_pressure;BME280_temperature;BME280_humidity;BME280_pressure;Samples;Min_cycle;Max_cycle;Signal;HPM_P1;HPM_P2
2024/03/23 00:00:36;;;;;;;20.90;6.13;;;8.60;99.90;;;;;;5037968;28;20227;-70
2024/03/23 00:03:07;;;;;;;19.90;4.82;;;8.60;99.90;;;;;;5031916;28;20563;-72
2024/03/23 00:05:37;;;;;;;23.50;6.50;;;8.60;99.90;;;;;;5027652;28;20220;-72
2024/03/23 00:08:08;;;;;;;23.45;7.38;;;8.60;99.90;;;;;;5031082;28;20224;-71
2024/03/23 00:10:37;;;;;;;20.65;5.65;;;8.60;99.90;;;;;;5030757;28;20206;-70
2024/03/23 00:13:08;;;;;;;21.60;6.72;;;8.60;99.90;;;;;;5031879;28;20201;-72
2024/03/23 00:15:38;;;;;;;18.48;5.72;;;8.60;99.90;;;;;;5030702;28;20220;-71
2024/03/23 00:18:08;;;;;;;25.55;5.65;;;8.60;99.90;;;;;;5030742;28;20201;-72
2024/03/23 00:20:38;;;;;;;22.35;4.63;;;8.60;99.90;;;;;;5030522;28;20216;-72
2024/03/23 00:23:09;;;;;;;24.15;6.95;;;8.60;99.90;;;;;;5031734;28;20201;-72
2024/03/23 00:25:38;;;;;;;25.02;6.75;;;8.60;99.90;;;;;;5021058;28;20291;-72
2024/03/23 00:28:10;;;;;;;29.63;7.13;;;8.60;99.90;;;;;;5032004;28;20216;-72
2024/03/23 00:30:39;;;;;;;24.80;6.82;;;8.60;99.90;;;;;;5029057;28;20292;-73
2024/03/23 00:33:10;;;;;;;31.45;6.07;;;8.50;99.90;;;;;;5031553;28;20318;-72
2024/03/23 00:35:40;;;;;;;20.23;5.93;;;8.50;99.90;;;;;;5024427;28;20282;-72
2024/03/23 00:38:10;;;;;;;28.98;5.70;;;8.50;99.90;;;;;;5034143;28;20204;-72
2024/03/23 00:40:40;;;;;;;17.08;6.00;;;8.50;99.90;;;;;;5030344;28;20196;-73
2024/03/23 00:43:10;;;;;;;30.42;8.05;;;8.50;99.90;;;;;;5023043;28;20547;-71
2024/03/23 00:45:40;;;;;;;26.05;7.53;;;8.50;99.90;;;;;;5031274;28;20259;-72
2024/03/23 00:48:11;;;;;;;19.05;4.90;;;8.60;99.90;;;;;;5034896;28;20228;-71
2024/03/23 00:50:40;;;;;;;30.48;7.60;;;8.50;99.90;;;;;;5030430;28;20492;-71
2024/03/23 00:53:11;;;;;;;29.70;8.25;;;8.50;99.90;;;;;;5031289;28;20204;-71
2024/03/23 00:55:38;;;;;;;26.33;6.75;;;8.40;99.90;;;;;;5023432;28;20221;-71
2024/03/23 00:58:05;;;;;;;23.98;5.93;;;8.40;99.90;;;;;;5033002;28;20197;-72
2024/03/23 01:00:31;;;;;;;24.90;7.68;;;8.40;99.90;;;;;;5030745;28;20284;-72
2024/03/23 01:02:58;;;;;;;26.52;7.03;;;8.40;99.90;;;;;;5029921;28;20193;-71
2024/03/23 01:05:24;;;;;;;24.70;6.68;;;8.40;99.90;;;;;;5034982;28;20224;-71
2024/03/23 01:07:51;;;;;;;32.27;9.63;;;8.40;99.90;;;;;;5034609;28;20270;-71
2024/03/23 01:10:17;;;;;;;19.55;6.20;;;8.30;99.90;;;;;;5030463;28;20447;-72
2024/03/23 01:12:46;;;;;;;19.70;6.40;;;8.30;99.90;;;;;;5029452;28;20245;-72
2024/03/23 01:15:11;;;;;;;25.17;7.32;;;8.20;99.90;;;;;;5024412;28;20448;-72
2024/03/23 01:17:38;;;;;;;18.03;5.37;;;8.20;99.90;;;;;;5034576;28;20201;-72
2024/03/23 01:20:06;;;;;;;22.08;6.43;;;8.20;99.90;;;;;;5034406;28;20490;-72
2024/03/23 01:22:33;;;;;;;20.75;5.90;;;8.20;99.90;;;;;;5035120;28;20196;-71
2024/03/23 01:24:59;;;;;;;22.63;7.18;;;8.20;99.90;;;;;;5034314;28;20205;-70
2024/03/23 01:27:26;;;;;;;20.98;5.90;;;8.20;99.90;;;;;;5036025;28;20605;-72
2024/03/23 01:29:53;;;;;;;25.92;6.30;;;8.20;99.90;;;;;;5033851;28;20292;-73
2024/03/23 01:32:20;;;;;;;25.25;6.55;;;8.20;99.90;;;;;;5038479;28;20205;-72
2024/03/23 01:34:46;;;;;;;24.55;5.45;;;8.10;99.90;;;;;;5033694;28;20266;-72
2024/03/23 01:37:13;;;;;;;22.63;6.47;;;8.10;99.90;;;;;;5041343;28;20224;-73
2024/03/23 01:39:39;;;;;;;16.65;6.60;;;8.00;99.90;;;;;;5033753;28;20535;-72
2024/03/23 01:42:06;;;;;;;15.63;4.90;;;8.00;99.90;;;;;;5034371;28;20600;-71
2024/03/23 01:44:32;;;;;;;19.85;5.50;;;8.10;99.90;;;;;;5034506;28;20443;-71
2024/03/23 01:47:00;;;;;;;23.43;6.10;;;8.10;99.90;;;;;;5036218;28;20216;-72
2024/03/23 01:49:26;;;;;;;30.33;6.90;;;8.10;99.90;;;;;;5033582;28;21046;-71
2024/03/23 01:51:53;;;;;;;23.23;8.80;;;8.10;99.90;;;;;;5034360;28;20217;-72
2024/03/23 01:54:19;;;;;;;26.92;5.43;;;8.10;99.90;;;;;;5028793;28;20447;-72
2024/03/23 01:56:46;;;;;;;27.30;7.68;;;8.10;99.90;;;;;;5045106;28;20273;-72
2024/03/23 01:59:13;;;;;;;28.65;7.32;;;8.00;99.90;;;;;;5033935;28;20617;-71
2024/03/23 02:01:41;;;;;;;19.17;5.78;;;8.10;99.90;;;;;;5041130;28;20276;-71
2024/03/23 02:04:09;;;;;;;26.67;6.25;;;8.10;99.90;;;;;;5027801;28;20747;-73
2024/03/23 02:06:36;;;;;;;24.95;6.68;;;8.10;99.90;;;;;;5033484;28;20224;-72
2024/03/23 02:09:03;;;;;;;22.23;7.10;;;8.00;99.90;;;;;;5029850;28;20220;-72
2024/03/23 02:11:30;;;;;;;21.67;6.07;;;8.00;99.90;;;;;;5029712;28;20193;-71
2024/03/23 02:13:56;;;;;;;40.72;12.50;;;8.00;99.90;;;;;;5026459;28;20274;-71
2024/03/23 02:16:23;;;;;;;18.30;6.22;;;8.00;99.90;;;;;;5033295;28;20706;-72
2024/03/23 02:18:49;;;;;;;27.92;7.18;;;8.10;99.90;;;;;;5028843;28;20247;-70
2024/03/23 02:21:18;;;;;;;24.07;7.37;;;8.00;99.90;;;;;;5032358;28;20201;-70
2024/03/23 02:23:45;;;;;;;25.70;7.18;;;7.90;99.90;;;;;;5033534;28;20894;-71
2024/03/23 02:26:14;;;;;;;26.10;6.25;;;8.00;99.90;;;;;;5033440;28;20231;-71
2024/03/23 02:28:39;;;;;;;24.38;5.85;;;7.90;99.90;;;;;;5035001;28;20282;-71
2024/03/23 02:31:06;;;;;;;18.30;7.83;;;7.90;99.90;;;;;;5032734;28;20196;-71
2024/03/23 02:33:34;;;;;;;22.52;5.65;;;8.00;99.90;;;;;;5030672;28;20440;-71
2024/03/23 02:36:01;;;;;;;27.00;6.57;;;8.00;99.90;;;;;;5031275;28;20274;-72
2024/03/23 02:38:27;;;;;;;17.73;6.07;;;8.00;99.90;;;;;;5035435;28;20201;-72
2024/03/23 02:40:55;;;;;;;22.20;5.90;;;8.00;99.90;;;;;;5028361;28;20205;-71
2024/03/23 02:43:21;;;;;;;13.07;5.40;;;8.00;99.90;;;;;;5033101;28;20440;-72
2024/03/23 02:45:48;;;;;;;23.07;5.27;;;8.00;99.90;;;;;;5032859;28;20748;-71
2024/03/23 02:48:14;;;;;;;20.98;5.80;;;8.00;99.90;;;;;;5036530;28;20475;-72
2024/03/23 02:50:41;;;;;;;17.60;5.30;;;8.10;99.90;;;;;;5032548;28;20265;-71
2024/03/23 02:53:06;;;;;;;27.40;7.97;;;8.10;99.90;;;;;;5028158;28;21024;-72
2024/03/23 02:55:33;;;;;;;20.80;6.70;;;8.10;99.90;;;;;;5031474;28;20284;-72
2024/03/23 02:58:01;;;;;;;33.83;7.78;;;8.10;99.90;;;;;;5031846;28;20494;-72
2024/03/23 03:00:29;;;;;;;16.95;6.82;;;8.00;99.90;;;;;;5028629;28;20302;-71
2024/03/23 03:02:55;;;;;;;32.63;7.50;;;8.00;99.90;;;;;;5032470;28;20659;-72
2024/03/23 03:05:23;;;;;;;28.95;7.72;;;7.90;99.90;;;;;;5027000;28;20307;-72
2024/03/23 03:07:49;;;;;;;18.95;4.97;;;7.80;99.90;;;;;;5031696;28;20254;-72
2024/03/23 03:10:16;;;;;;;24.57;7.30;;;7.80;99.90;;;;;;5027362;28;20193;-71
2024/03/23 03:12:42;;;;;;;24.23;5.82;;;7.80;99.90;;;;;;5032008;28;20444;-72
2024/03/23 03:15:10;;;;;;;27.20;5.27;;;7.80;99.90;;;;;;5027399;28;20258;-72
2024/03/23 03:17:36;;;;;;;24.58;7.15;;;7.80;99.90;;;;;;5029477;28;20449;-73
2024/03/23 03:20:04;;;;;;;28.27;7.97;;;7.70;99.90;;;;;;5031993;28;20255;-70
2024/03/23 03:22:30;;;;;;;16.27;5.75;;;7.70;99.90;;;;;;5025297;28;20544;-70
2024/03/23 03:24:57;;;;;;;30.40;7.03;;;7.70;99.90;;;;;;5032720;28;20279;-71
2024/03/23 03:27:24;;;;;;;26.85;7.90;;;7.60;99.90;;;;;;5037380;28;20452;-71
2024/03/23 03:29:51;;;;;;;22.48;7.85;;;7.60;99.90;;;;;;5038147;28;20254;-71
2024/03/23 03:32:18;;;;;;;30.80;6.90;;;7.60;99.90;;;;;;5032413;28;20196;-71
2024/03/23 03:34:45;;;;;;;20.55;5.90;;;7.60;99.90;;;;;;5030701;28;20232;-73
2024/03/23 03:37:11;;;;;;;15.85;5.70;;;7.60;99.90;;;;;;5025615;28;20256;-72
2024/03/23 03:39:38;;;;;;;13.93;6.20;;;7.60;99.90;;;;;;5027068;28;20286;-72
2024/03/23 03:42:06;;;;;;;21.83;5.88;;;7.60;99.90;;;;;;5032469;28;20440;-71
2024/03/23 03:44:33;;;;;;;28.08;7.82;;;7.60;99.90;;;;;;5031745;28;20233;-71
2024/03/23 03:46:59;;;;;;;13.18;5.40;;;7.60;99.90;;;;;;5035176;28;20574;-73
2024/03/23 03:51:53;;;;;;;22.77;5.80;;;7.60;99.90;;;;;;5089945;23;20498;-81
2024/03/23 03:54:21;;;;;;;21.35;6.05;;;7.60;99.90;;;;;;5075098;28;20212;-82
2024/03/23 03:56:48;;;;;;;27.15;6.45;;;7.70;99.90;;;;;;5075051;28;20199;-81
2024/03/23 03:59:23;;;;;;;28.15;8.95;;;7.60;99.90;;;;;;5073491;28;20196;-81
2024/03/23 04:01:51;;;;;;;23.08;7.05;;;7.50;99.90;;;;;;5072929;28;20243;-82
2024/03/23 04:04:17;;;;;;;23.70;8.30;;;7.50;99.90;;;;;;5074623;28;20294;-84
2024/03/23 04:06:48;;;;;;;33.28;5.70;;;7.50;99.90;;;;;;5064056;28;20207;-84
2024/03/23 04:09:15;;;;;;;16.33;5.63;;;7.40;99.90;;;;;;5065974;28;20251;-81
2024/03/23 04:11:42;;;;;;;33.30;8.88;;;7.40;99.90;;;;;;5080378;28;20230;-83
2024/03/23 04:14:09;;;;;;;23.05;6.20;;;7.40;99.90;;;;;;5043726;28;20206;-83
2024/03/23 04:16:42;;;;;;;38.80;7.40;;;7.40;99.90;;;;;;5073777;28;20200;-83
2024/03/23 04:19:09;;;;;;;22.88;6.25;;;7.40;99.90;;;;;;5065729;28;20216;-81
2024/03/23 04:21:36;;;;;;;36.25;6.38;;;7.40;99.90;;;;;;5069996;28;20291;-83
2024/03/23 04:24:03;;;;;;;28.95;7.63;;;7.40;99.90;;;;;;5063887;28;20262;-83
2024/03/23 04:26:41;;;;;;;34.80;8.50;;;7.30;99.90;;;;;;5063708;28;20220;-83
2024/03/23 04:29:07;;;;;;;23.20;7.00;;;7.30;99.90;;;;;;5068159;28;20220;-82
2024/03/23 04:31:36;;;;;;;27.30;6.63;;;7.40;99.90;;;;;;5076438;28;20310;-82
2024/03/23 04:34:03;;;;;;;19.27;7.00;;;7.40;99.90;;;;;;5061176;28;20443;-82
2024/03/23 04:36:30;;;;;;;28.02;9.90;;;7.40;99.90;;;;;;5072681;28;20329;-80
2024/03/23 04:38:59;;;;;;;20.00;5.53;;;7.40;99.90;;;;;;5077272;28;20193;-81
2024/03/23 04:41:26;;;;;;;20.13;6.93;;;7.40;99.90;;;;;;5071439;28;20199;-82
2024/03/23 04:43:54;;;;;;;19.58;5.47;;;7.30;99.90;;;;;;5074503;28;20204;-82
2024/03/23 04:46:22;;;;;;;27.02;6.97;;;7.30;99.90;;;;;;5069646;28;20201;-82
2024/03/23 04:48:48;;;;;;;31.52;7.40;;;7.30;99.90;;;;;;5071625;28;20219;-83
2024/03/23 04:51:22;;;;;;;26.27;5.95;;;7.50;99.90;;;;;;5074298;28;20224;-84
2024/03/23 04:53:49;;;;;;;22.92;6.53;;;7.30;99.90;;;;;;5069392;28;20214;-82
2024/03/23 04:56:16;;;;;;;29.98;7.28;;;7.30;99.90;;;;;;5071240;28;20267;-81
2024/03/23 04:58:43;;;;;;;27.50;8.27;;;7.20;99.90;;;;;;5065653;28;20208;-84
2024/03/23 05:01:12;;;;;;;25.77;6.22;;;7.30;99.90;;;;;;5077775;28;20211;-83
2024/03/23 05:03:38;;;;;;;28.92;6.65;;;7.20;99.90;;;;;;5078370;28;20213;-85
2024/03/23 05:06:06;;;;;;;21.88;6.65;;;7.30;99.90;;;;;;5072495;28;20196;-82
2024/03/23 05:08:32;;;;;;;36.67;6.05;;;7.30;99.90;;;;;;5064189;28;20212;-83
2024/03/23 05:10:59;;;;;;;19.30;6.22;;;7.30;99.90;;;;;;5072806;28;20231;-83
2024/03/23 05:13:25;;;;;;;25.67;6.20;;;7.30;99.90;;;;;;5076436;28;20187;-81
2024/03/23 05:15:53;;;;;;;29.77;7.75;;;7.40;99.90;;;;;;5076856;28;20212;-83
2024/03/23 05:18:21;;;;;;;23.27;5.65;;;7.30;99.90;;;;;;5073000;28;20185;-84
2024/03/23 05:20:48;;;;;;;23.00;6.53;;;7.30;99.90;;;;;;5074897;28;20208;-82
2024/03/23 05:23:14;;;;;;;15.90;4.60;;;7.30;99.90;;;;;;5088022;28;20215;-81
2024/03/23 05:25:41;;;;;;;18.27;6.32;;;7.30;99.90;;;;;;5075876;28;20250;-83
2024/03/23 05:28:08;;;;;;;20.95;5.70;;;7.30;99.90;;;;;;5087348;28;20184;-82
2024/03/23 05:30:34;;;;;;;24.60;6.78;;;7.30;99.90;;;;;;5086173;28;20350;-82
2024/03/23 05:33:01;;;;;;;18.98;6.57;;;7.30;99.90;;;;;;5073384;28;20254;-83
2024/03/23 05:35:28;;;;;;;25.15;6.93;;;7.20;99.90;;;;;;5088477;28;20179;-83
2024/03/23 05:37:55;;;;;;;19.98;5.85;;;7.20;99.90;;;;;;5071004;28;20208;-83
2024/03/23 05:40:21;;;;;;;17.77;5.18;;;7.30;99.90;;;;;;5076104;28;20216;-83
2024/03/23 05:42:48;;;;;;;24.83;6.38;;;7.20;99.90;;;;;;5078110;28;20279;-83
2024/03/23 05:45:18;;;;;;;22.40;6.97;;;7.20;99.90;;;;;;5078276;28;20200;-84
2024/03/23 05:47:45;;;;;;;19.85;7.22;;;7.20;99.90;;;;;;5076150;28;20482;-85
2024/03/23 05:50:12;;;;;;;30.35;6.72;;;7.10;99.90;;;;;;5066558;28;20231;-83
2024/03/23 05:52:43;;;;;;;22.73;6.05;;;7.10;99.90;;;;;;5071033;28;20214;-85
2024/03/23 05:55:09;;;;;;;27.92;7.13;;;7.10;99.90;;;;;;5064303;28;20216;-85
2024/03/23 05:57:36;;;;;;;21.92;6.57;;;7.10;99.90;;;;;;5065713;28;20228;-83
2024/03/23 06:00:03;;;;;;;18.67;6.25;;;7.10;99.90;;;;;;5065630;28;20227;-84
2024/03/23 06:02:31;;;;;;;17.10;7.45;;;7.10;99.90;;;;;;5062029;28;20199;-84
2024/03/23 06:04:56;;;;;;;17.30;5.07;;;7.00;99.90;;;;;;5073968;28;20217;-84
2024/03/23 06:07:23;;;;;;;30.43;7.77;;;7.10;99.90;;;;;;5069246;28;20630;-84
2024/03/23 06:09:51;;;;;;;19.20;7.80;;;7.00;99.90;;;;;;5060712;28;20510;-82
2024/03/23 06:12:18;;;;;;;19.25;6.18;;;7.00;99.90;;;;;;5071664;28;20295;-83
2024/03/23 06:14:44;;;;;;;29.08;5.85;;;7.00;99.90;;;;;;5062225;28;20200;-86
2024/03/23 06:17:10;;;;;;;22.43;5.40;;;7.10;99.90;;;;;;5055151;28;20201;-83
2024/03/23 06:19:36;;;;;;;21.65;5.82;;;7.30;99.90;;;;;;5060045;28;20450;-82
2024/03/23 06:22:06;;;;;;;32.27;6.73;;;7.70;99.90;;;;;;5074656;28;20208;-82
2024/03/23 06:24:32;;;;;;;23.40;6.30;;;8.10;99.90;;;;;;5069866;28;20464;-82
2024/03/23 06:27:01;;;;;;;12.63;5.27;;;8.70;99.90;;;;;;5077987;28;20204;-83
2024/03/23 06:29:27;;;;;;;20.23;6.53;;;9.70;99.90;;;;;;5083103;28;20488;-82
2024/03/23 06:31:55;;;;;;;14.63;5.17;;;10.50;99.90;;;;;;5076397;28;20214;-83
2024/03/23 06:34:22;;;;;;;21.30;5.10;;;10.60;99.90;;;;;;5070348;28;20768;-81
2024/03/23 06:36:49;;;;;;;29.52;6.22;;;10.90;99.90;;;;;;5070796;28;20200;-85
2024/03/23 06:39:15;;;;;;;13.50;5.00;;;11.50;99.90;;;;;;5068502;28;20195;-83
2024/03/23 06:41:42;;;;;;;14.10;4.63;;;12.00;99.90;;;;;;5078086;28;20226;-83
2024/03/23 06:44:09;;;;;;;21.08;6.25;;;12.50;99.90;;;;;;5069939;28;20238;-83
2024/03/23 06:46:36;;;;;;;19.40;5.43;;;12.90;99.90;;;;;;5068391;28;20204;-83
2024/03/23 06:49:02;;;;;;;9.50;4.57;;;13.50;99.90;;;;;;5079625;28;20222;-82
2024/03/23 06:51:30;;;;;;;13.70;4.70;;;13.90;99.90;;;;;;5068216;28;20231;-83
2024/03/23 06:53:55;;;;;;;21.43;5.50;;;14.50;99.90;;;;;;5065734;28;20285;-83
2024/03/23 06:56:22;;;;;;;17.93;4.90;;;15.10;99.90;;;;;;5072879;28;20434;-82
2024/03/23 06:58:48;;;;;;;17.40;5.10;;;15.60;99.90;;;;;;5066680;28;20442;-84
2024/03/23 07:01:17;;;;;;;17.10;5.07;;;15.30;99.60;;;;;;5065612;28;20472;-81
2024/03/23 07:03:43;;;;;;;13.53;4.40;;;15.30;99.50;;;;;;5065951;28;20441;-83
2024/03/23 07:06:11;;;;;;;19.50;4.93;;;15.20;98.80;;;;;;5066496;28;20596;-83
2024/03/23 07:08:37;;;;;;;10.57;4.37;;;15.70;98.50;;;;;;5066272;28;20454;-85
2024/03/23 07:11:04;;;;;;;22.30;5.27;;;15.70;98.20;;;;;;5069893;28;20500;-83
2024/03/23 07:13:30;;;;;;;14.97;4.50;;;16.10;98.10;;;;;;5060728;28;20942;-84
2024/03/23 07:15:59;;;;;;;18.93;4.50;;;15.90;97.40;;;;;;5065908;28;20464;-84
2024/03/23 07:18:28;;;;;;;15.87;4.80;;;16.20;96.90;;;;;;5067278;28;20443;-83
2024/03/23 07:20:54;;;;;;;18.63;5.27;;;16.70;96.70;;;;;;5068437;28;20467;-83
2024/03/23 07:23:21;;;;;;;13.73;4.30;;;16.80;95.80;;;;;;5059940;28;20457;-82
2024/03/23 07:25:58;;;;;;;15.97;4.80;;;16.40;95.60;;;;;;5065162;28;20434;-83
2024/03/23 07:28:31;;;;;;;14.70;4.83;;;16.90;95.70;;;;;;5067280;28;20429;-82
2024/03/23 07:31:04;;;;;;;24.37;5.63;;;17.30;95.00;;;;;;5067993;28;20485;-85
2024/03/23 07:33:35;;;;;;;14.43;5.17;;;17.70;94.60;;;;;;5078730;28;20439;-89
2024/03/23 07:36:01;;;;;;;13.50;4.10;;;17.80;93.90;;;;;;5071288;28;20446;-83
2024/03/23 07:38:29;;;;;;;13.23;4.60;;;18.00;93.40;;;;;;5075404;28;20467;-86
2024/03/23 07:41:23;;;;;;;16.33;5.00;;;18.50;93.00;;;;;;5071099;28;20454;-86
2024/03/23 07:43:52;;;;;;;11.17;4.43;;;18.00;92.60;;;;;;5078078;28;20453;-86
2024/03/23 07:46:20;;;;;;;17.67;6.30;;;18.00;92.50;;;;;;5078604;28;20528;-88
2024/03/23 07:48:53;;;;;;;15.40;4.20;;;18.40;92.40;;;;;;5077594;28;20450;-89
2024/03/23 07:51:22;;;;;;;12.13;4.63;;;17.90;92.40;;;;;;5077148;28;20479;-88
2024/03/23 07:53:50;;;;;;;12.93;4.20;;;18.10;92.10;;;;;;5083398;28;20603;-87
2024/03/23 07:56:19;;;;;;;13.50;4.20;;;18.60;91.90;;;;;;5076616;28;20459;-87
2024/03/23 07:58:46;;;;;;;13.33;6.10;;;18.20;91.90;;;;;;5079380;28;20443;-84
2024/03/23 08:01:14;;;;;;;12.33;4.03;;;18.40;91.80;;;;;;5091650;28;20466;-85
2024/03/23 08:03:43;;;;;;;20.73;4.47;;;18.40;92.00;;;;;;5077564;28;20446;-85
2024/03/23 08:06:11;;;;;;;14.30;4.10;;;18.60;91.30;;;;;;5072546;28;20478;-84
2024/03/23 08:08:39;;;;;;;13.00;4.23;;;17.90;91.30;;;;;;5077263;28;20449;-86
2024/03/23 08:11:05;;;;;;;16.60;5.70;;;18.00;92.10;;;;;;5072078;28;20530;-87
2024/03/23 08:13:33;;;;;;;19.97;7.20;;;17.70;92.30;;;;;;5076102;28;20461;-87
2024/03/23 08:16:00;;;;;;;13.40;5.00;;;16.90;92.30;;;;;;5070677;28;20484;-84
2024/03/23 08:18:27;;;;;;;10.63;4.57;;;16.90;92.80;;;;;;5092102;28;20513;-85
2024/03/23 08:20:57;;;;;;;14.60;4.13;;;17.10;92.80;;;;;;5072825;28;20467;-85
2024/03/23 08:23:26;;;;;;;14.87;4.33;;;17.40;92.60;;;;;;5088391;28;20493;-86
2024/03/23 08:25:57;;;;;;;15.97;4.73;;;17.20;92.30;;;;;;5082562;22;20473;-75
2024/03/23 08:28:25;;;;;;;10.50;4.43;;;17.70;91.80;;;;;;5046856;28;20435;-78
2024/03/23 08:30:51;;;;;;;15.63;4.50;;;17.50;92.00;;;;;;5046625;28;20490;-75
2024/03/23 08:33:18;;;;;;;10.90;3.20;;;17.10;92.00;;;;;;5045498;28;20948;-81
2024/03/23 08:35:53;;;;;;;11.20;4.00;;;17.50;92.10;;;;;;5041838;28;20471;-77
2024/03/23 08:38:20;;;;;;;13.27;4.33;;;18.20;92.70;;;;;;5046742;28;20458;-78
2024/03/23 08:40:48;;;;;;;11.53;3.97;;;19.00;90.60;;;;;;5048882;28;20445;-80
2024/03/23 08:43:15;;;;;;;14.93;4.60;;;19.20;89.80;;;;;;5053534;28;20443;-80
2024/03/23 08:45:41;;;;;;;14.73;5.70;;;17.10;88.30;;;;;;5049147;28;20468;-78
2024/03/23 08:48:09;;;;;;;14.27;4.77;;;15.70;91.50;;;;;;5050561;28;20450;-77
2024/03/23 08:50:35;;;;;;;17.45;3.38;;;14.50;92.90;;;;;;5048025;28;20591;-77
2024/03/23 08:53:03;;;;;;;8.93;3.80;;;14.70;93.80;;;;;;5051898;28;20200;-76
2024/03/23 08:55:28;;;;;;;9.77;3.00;;;14.90;93.70;;;;;;5049452;28;20354;-78
2024/03/23 08:57:58;;;;;;;9.33;3.30;;;15.70;93.30;;;;;;5052163;28;20536;-80
2024/03/23 09:00:24;;;;;;;12.00;4.73;;;15.80;92.20;;;;;;5050079;28;20445;-75
2024/03/23 09:02:51;;;;;;;10.13;3.43;;;16.50;91.60;;;;;;5053415;28;20523;-73
2024/03/23 09:05:17;;;;;;;12.93;2.43;;;16.80;91.30;;;;;;5052550;28;20968;-75
2024/03/23 09:07:44;;;;;;;13.17;3.97;;;16.70;90.80;;;;;;5053402;28;20512;-78
2024/03/23 09:10:10;;;;;;;9.40;3.93;;;16.70;91.00;;;;;;5051574;28;20980;-75
2024/03/23 09:12:37;;;;;;;14.30;3.17;;;16.20;91.20;;;;;;5049984;28;20449;-74
2024/03/23 09:15:06;;;;;;;7.20;3.80;;;15.50;91.40;;;;;;5045950;28;20937;-74
2024/03/23 09:17:33;;;;;;;16.23;3.70;;;14.70;92.90;;;;;;5046558;28;20456;-75
2024/03/23 09:19:58;;;;;;;14.60;2.90;;;15.50;92.80;;;;;;5049030;28;20931;-75
2024/03/23 09:22:25;;;;;;;12.13;3.70;;;16.20;91.50;;;;;;5046347;28;20519;-73
2024/03/23 09:24:51;;;;;;;7.30;2.90;;;16.10;90.20;;;;;;5051992;28;20497;-74
2024/03/23 09:27:18;;;;;;;8.77;2.77;;;16.00;90.70;;;;;;5046259;28;20472;-75
2024/03/23 09:29:45;;;;;;;12.13;3.00;;;15.60;90.00;;;;;;5049914;28;20935;-73
2024/03/23 09:32:13;;;;;;;11.30;3.10;;;14.80;90.70;;;;;;5047657;28;20446;-75
2024/03/23 09:34:39;;;;;;;9.55;2.63;;;14.10;91.90;;;;;;5049866;28;20550;-74
2024/03/23 09:37:06;;;;;;;17.43;5.40;;;13.30;92.80;;;;;;5050945;28;20250;-73
2024/03/23 09:39:32;;;;;;;10.02;3.45;;;12.80;93.90;;;;;;5056149;28;20442;-74
2024/03/23 09:41:59;;;;;;;13.97;2.60;;;12.30;94.90;;;;;;5053514;28;20199;-75
2024/03/23 09:44:28;;;;;;;13.13;3.42;;;11.70;95.70;;;;;;5056042;28;20948;-72
2024/03/23 09:46:56;;;;;;;13.30;2.95;;;11.40;96.90;;;;;;5055687;28;20246;-75
2024/03/23 09:49:24;;;;;;;10.10;3.42;;;11.90;98.00;;;;;;5062290;28;20227;-75
2024/03/23 09:58:49;;;;;;;7.93;3.08;;;13.50;95.30;;;;;;5012357;28;20194;-85
2024/03/23 12:01:25;;;;;;;5.72;2.00;;;12.30;94.20;;;;;;4965111;28;20622;-84
2024/03/23 12:03:51;;;;;;;5.00;1.75;;;12.50;94.60;;;;;;4993798;28;20609;-84
2024/03/23 12:06:21;;;;;;;3.25;1.88;;;12.40;94.20;;;;;;5006268;28;20403;-85
2024/03/23 12:08:48;;;;;;;3.13;1.77;;;12.30;94.30;;;;;;5032498;28;20294;-81
2024/03/23 12:11:17;;;;;;;4.60;2.25;;;12.10;94.40;;;;;;5069413;28;20744;-84
2024/03/23 12:13:46;;;;;;;5.75;1.85;;;12.10;94.90;;;;;;5070239;28;20211;-84
2024/03/23 12:16:15;;;;;;;9.68;4.13;;;11.90;95.30;;;;;;5072045;28;20294;-85
2024/03/23 12:18:45;;;;;;;4.07;1.90;;;11.70;97.20;;;;;;5089903;28;20207;-86
2024/03/23 12:21:12;;;;;;;3.85;1.90;;;11.30;99.80;;;;;;5089127;28;20275;-85
2024/03/23 12:23:40;;;;;;;4.97;1.88;;;10.80;99.90;;;;;;5089021;28;20264;-84
2024/03/23 12:26:11;;;;;;;8.57;2.28;;;10.70;99.90;;;;;;5089906;28;20194;-85
2024/03/23 12:28:38;;;;;;;4.60;2.55;;;10.20;99.90;;;;;;5089515;28;20207;-84
2024/03/23 12:31:06;;;;;;;5.70;1.40;;;10.30;99.90;;;;;;5088913;28;20232;-82
2024/03/23 12:33:33;;;;;;;6.18;2.95;;;10.10;99.90;;;;;;5089225;28;20196;-83
2024/03/23 12:36:02;;;;;;;1.92;1.30;;;9.40;99.90;;;;;;5069442;28;20214;-84
2024/03/23 12:38:29;;;;;;;2.28;1.27;;;9.10;99.90;;;;;;5069727;28;20266;-83
2024/03/23 12:40:56;;;;;;;4.65;1.00;;;8.90;99.90;;;;;;5073182;28;20242;-84
2024/03/23 12:43:23;;;;;;;2.95;1.42;;;8.80;99.90;;;;;;5072131;28;20803;-85
2024/03/23 12:45:55;;;;;;;2.47;1.20;;;8.70;99.90;;;;;;5070899;28;20216;-83
2024/03/23 12:48:21;;;;;;;3.63;1.35;;;8.50;99.90;;;;;;5049062;28;20352;-85
2024/03/23 12:50:57;;;;;;;3.47;0.90;;;8.80;99.90;;;;;;5046601;28;20229;-84
2024/03/23 12:53:26;;;;;;;5.30;1.25;;;8.90;99.90;;;;;;5050058;28;20208;-85
2024/03/23 12:55:53;;;;;;;1.90;0.82;;;9.30;99.90;;;;;;5048017;28;20268;-83
2024/03/23 12:58:20;;;;;;;2.25;1.30;;;9.60;99.90;;;;;;5048739;28;20208;-83
2024/03/23 13:00:49;;;;;;;2.75;0.82;;;9.50;99.90;;;;;;5047417;28;20220;-84
2024/03/23 13:03:15;;;;;;;2.45;1.15;;;9.50;99.90;;;;;;5028894;28;20217;-83
2024/03/23 13:05:46;;;;;;;1.95;1.00;;;9.40;99.90;;;;;;5026848;28;20205;-83
2024/03/23 13:08:12;;;;;;;3.08;1.20;;;9.50;99.90;;;;;;5028051;28;20216;-84
2024/03/23 13:10:43;;;;;;;3.15;1.15;;;9.50;99.90;;;;;;5028616;28;20234;-84
2024/03/23 13:13:09;;;;;;;3.00;1.27;;;9.50;99.90;;;;;;5050987;28;20212;-84
2024/03/23 13:15:36;;;;;;;3.97;1.53;;;9.50;99.90;;;;;;5053189;28;20240;-85
2024/03/23 13:18:02;;;;;;;4.03;1.05;;;9.90;99.90;;;;;;5054961;28;20454;-82
2024/03/23 13:20:29;;;;;;;4.88;1.23;;;9.90;99.90;;;;;;5059271;28;20230;-84
2024/03/23 13:22:55;;;;;;;7.43;4.07;;;10.10;99.90;;;;;;5055078;28;20216;-82
2024/03/23 13:25:22;;;;;;;3.50;1.50;;;9.90;99.90;;;;;;5060882;28;20211;-83
2024/03/23 13:27:49;;;;;;;4.38;2.20;;;10.20;99.90;;;;;;5063352;28;20440;-84
2024/03/23 13:30:17;;;;;;;3.50;1.58;;;10.40;99.90;;;;;;5057829;28;20324;-83
2024/03/23 13:32:43;;;;;;;4.30;1.27;;;10.40;99.90;;;;;;5055076;28;20224;-83
2024/03/23 13:35:10;;;;;;;4.57;1.60;;;10.50;99.90;;;;;;5062620;28;21590;-82
2024/03/23 13:37:36;;;;;;;4.68;2.05;;;10.40;99.50;;;;;;5056847;28;20207;-85
2024/03/23 13:40:03;;;;;;;5.25;1.90;;;10.10;99.90;;;;;;5057794;28;20210;-84
2024/03/23 13:42:29;;;;;;;4.10;1.90;;;9.90;99.90;;;;;;5055432;28;20216;-84
2024/03/23 13:44:58;;;;;;;2.23;1.43;;;9.50;99.90;;;;;;5050922;28;20197;-85
2024/03/23 13:47:24;;;;;;;2.97;1.42;;;9.00;99.90;;;;;;5068480;28;20470;-85
2024/03/23 13:49:51;;;;;;;3.70;1.60;;;8.60;99.90;;;;;;5067936;28;20219;-85
2024/03/23 13:52:22;;;;;;;4.70;1.90;;;8.30;99.90;;;;;;5060637;28;20423;-85
2024/03/23 13:54:49;;;;;;;7.55;2.33;;;8.30;99.90;;;;;;5061913;28;20197;-86
2024/03/23 13:57:17;;;;;;;6.35;2.17;;;8.20;99.90;;;;;;5058959;28;20212;-84
2024/03/23 13:59:44;;;;;;;6.15;2.25;;;7.90;99.90;;;;;;5045494;28;20197;-84
2024/03/23 14:02:14;;;;;;;4.57;2.08;;;8.10;99.90;;;;;;5056251;28;20993;-85
2024/03/23 14:04:41;;;;;;;5.30;1.80;;;8.20;99.90;;;;;;5057650;28;20289;-83
2024/03/23 14:07:07;;;;;;;4.55;2.08;;;8.40;99.90;;;;;;5062627;28;20308;-85
2024/03/23 14:09:34;;;;;;;9.43;2.93;;;8.70;99.90;;;;;;5053849;28;20197;-84
2024/03/23 14:12:00;;;;;;;4.07;2.05;;;8.70;99.90;;;;;;5052451;28;20483;-86
2024/03/23 14:14:27;;;;;;;2.60;1.97;;;8.70;99.90;;;;;;5047525;28;20199;-87
2024/03/23 14:16:53;;;;;;;5.45;2.20;;;8.80;99.90;;;;;;5054271;28;20454;-85
2024/03/23 14:19:22;;;;;;;4.73;2.13;;;8.70;99.90;;;;;;5052867;28;20201;-84
2024/03/23 14:21:48;;;;;;;4.47;1.98;;;8.70;99.90;;;;;;5051103;28;20510;-85
2024/03/23 14:24:15;;;;;;;3.47;2.00;;;8.60;99.90;;;;;;5053654;28;20200;-84
2024/03/23 14:26:42;;;;;;;5.65;2.22;;;8.90;99.90;;;;;;5071248;28;20537;-84
2024/03/23 14:29:09;;;;;;;2.75;1.30;;;9.00;99.90;;;;;;5056203;28;20424;-84
2024/03/23 14:31:35;;;;;;;3.15;1.83;;;9.20;99.90;;;;;;5065492;28;20239;-85
2024/03/23 14:34:02;;;;;;;5.18;1.70;;;9.20;99.90;;;;;;5067750;28;20205;-84
2024/03/23 14:36:29;;;;;;;7.22;1.67;;;9.30;99.90;;;;;;5057321;28;20301;-87
2024/03/23 14:38:56;;;;;;;3.55;1.70;;;9.30;99.90;;;;;;5049427;28;20232;-83
2024/03/23 14:41:22;;;;;;;4.97;1.88;;;9.30;99.90;;;;;;5059157;28;20240;-84
2024/03/23 14:43:50;;;;;;;10.30;1.60;;;9.20;99.90;;;;;;5050420;28;20241;-85
2024/03/23 14:46:17;;;;;;;4.78;2.45;;;9.30;99.90;;;;;;5056232;28;20227;-84
2024/03/23 14:48:46;;;;;;;4.70;1.70;;;9.50;99.90;;;;;;5065265;28;20198;-84
2024/03/23 14:51:12;;;;;;;3.95;1.52;;;9.70;99.90;;;;;;5055513;28;20248;-85
2024/03/23 14:53:42;;;;;;;3.85;1.45;;;9.80;99.90;;;;;;5054503;28;20230;-85
2024/03/23 14:56:10;;;;;;;2.13;1.60;;;10.00;99.90;;;;;;5052652;28;20285;-84